createdAt,value
2019-02-23T00:00:12.527Z,14.20
2019-02-23T00:01:15.984Z,13.60
2019-02-23T00:02:19.661Z,11.40
2019-02-23T00:03:21.305Z,10.20
2019-02-23T00:04:23.302Z,14.20
2019-02-23T00:05:25.337Z,10.00
2019-02-23T00:06:30.101Z,11.00
2019-02-23T00:07:31.348Z,11.00
2019-02-23T00:08:33.253Z,10.60
2019-02-23T00:09:35.315Z,12.40
2019-02-23T00:10:37.399Z,13.60
2019-02-23T00:11:39.398Z,11.60
2019-02-23T00:12:42.411Z,11.20
2019-02-23T00:13:44.647Z,11.80
2019-02-23T00:14:46.935Z,12.40
2019-02-23T00:15:48.667Z,12.20
2019-02-23T00:16:50.977Z,11.60
2019-02-23T00:17:53.130Z,15.80
2019-02-23T00:18:54.793Z,13.40
2019-02-23T00:19:57.000Z,12.60
2019-02-23T00:21:01.114Z,14.60
2019-02-23T00:22:03.876Z,12.40
2019-02-23T00:23:05.789Z,14.00
2019-02-23T00:24:07.752Z,12.60
2019-02-23T00:25:09.643Z,14.80
2019-02-23T00:26:11.609Z,11.80
2019-02-23T00:27:13.560Z,12.20
2019-02-23T00:28:15.306Z,13.40
2019-02-23T00:29:17.360Z,15.80
2019-02-23T00:30:19.390Z,11.60
2019-02-23T00:31:23.494Z,13.80
2019-02-23T00:32:25.470Z,15.80
2019-02-23T00:33:27.833Z,15.00
2019-02-23T00:34:29.518Z,13.60
2019-02-23T00:35:31.322Z,11.00
2019-02-23T00:36:33.322Z,14.20
2019-02-23T00:37:35.524Z,14.60
2019-02-23T00:38:37.742Z,16.40
2019-02-23T00:39:39.640Z,16.40
2019-02-23T00:40:41.902Z,15.20
2019-02-23T00:41:43.924Z,15.80
2019-02-23T00:42:45.817Z,16.00
2019-02-23T00:43:47.950Z,18.60
2019-02-23T00:44:50.071Z,17.60
2019-02-23T00:45:52.243Z,17.80
2019-02-23T00:46:54.120Z,15.60
2019-02-23T00:47:57.254Z,15.20
2019-02-23T00:48:59.340Z,14.20
2019-02-23T00:50:02.675Z,18.00
2019-02-23T00:51:04.741Z,15.00
2019-02-23T00:52:06.852Z,13.80
2019-02-23T00:53:08.902Z,17.40
2019-02-23T00:54:10.851Z,17.00
2019-02-23T00:55:13.056Z,17.00
2019-02-23T00:56:14.963Z,14.20
2019-02-23T00:57:16.983Z,17.40
2019-02-23T00:58:18.964Z,17.00
2019-02-23T00:59:20.988Z,17.20
2019-02-23T01:00:22.849Z,15.40
2019-02-23T01:01:24.515Z,16.20
2019-02-23T01:02:26.581Z,15.60
2019-02-23T01:03:28.601Z,15.20
2019-02-23T01:04:30.470Z,14.00
2019-02-23T01:05:33.583Z,15.80
2019-02-23T01:06:35.553Z,12.20
2019-02-23T01:07:37.892Z,14.60
2019-02-23T01:08:40.281Z,18.00
2019-02-23T01:09:42.163Z,11.60
2019-02-23T01:10:44.337Z,16.20
2019-02-23T01:11:46.602Z,15.40
2019-02-23T01:12:48.426Z,13.20
2019-02-23T01:13:50.456Z,16.80
2019-02-23T01:14:52.481Z,13.80
2019-02-23T01:15:54.158Z,13.00
2019-02-23T01:16:56.556Z,12.80
2019-02-23T01:17:58.524Z,13.40
2019-02-23T01:19:00.338Z,13.00
2019-02-23T01:20:07.272Z,16.20
2019-02-23T01:21:09.962Z,16.20
2019-02-23T01:22:12.002Z,14.40
2019-02-23T01:23:14.040Z,16.60
2019-02-23T01:24:16.383Z,15.00
2019-02-23T01:25:18.348Z,14.40
2019-02-23T01:26:20.855Z,12.40
2019-02-23T01:27:22.949Z,13.60
2019-02-23T01:28:26.248Z,12.80
2019-02-23T01:29:28.254Z,13.80
2019-02-23T01:30:30.062Z,14.60
2019-02-23T01:31:31.916Z,14.80
2019-02-23T01:32:33.891Z,15.60
2019-02-23T01:33:35.733Z,15.00
2019-02-23T01:34:37.741Z,13.20
2019-02-23T01:35:39.842Z,16.00
2019-02-23T01:36:41.947Z,14.20
2019-02-23T01:37:44.065Z,19.80
2019-02-23T01:38:46.755Z,17.60
2019-02-23T01:39:48.840Z,24.00
2019-02-23T01:40:51.329Z,19.40
2019-02-23T01:41:53.117Z,23.40
2019-02-23T01:42:56.052Z,25.00
2019-02-23T01:44:00.575Z,25.20
2019-02-23T01:45:04.960Z,24.20
2019-02-23T01:46:06.745Z,21.00
2019-02-23T01:47:09.160Z,21.00
2019-02-23T01:48:11.357Z,21.20
2019-02-23T01:49:13.163Z,16.60
2019-02-23T01:50:16.350Z,17.60
2019-02-23T01:51:18.327Z,19.80
2019-02-23T01:52:20.391Z,22.20
2019-02-23T01:53:22.355Z,25.60
2019-02-23T01:54:24.309Z,24.80
2019-02-23T01:55:26.515Z,25.80
2019-02-23T01:56:30.322Z,26.00
2019-02-23T01:57:32.405Z,18.00
2019-02-23T01:58:34.661Z,19.00
2019-02-23T01:59:36.532Z,21.60
2019-02-23T02:00:38.933Z,22.00
2019-02-23T02:01:41.439Z,19.60
2019-02-23T02:02:44.674Z,21.20
2019-02-23T02:03:46.583Z,20.00
2019-02-23T02:04:48.777Z,19.00
2019-02-23T02:05:51.323Z,24.00
2019-02-23T02:06:53.180Z,22.00
2019-02-23T02:07:55.339Z,19.60
2019-02-23T02:08:57.237Z,13.40
2019-02-23T02:09:59.481Z,19.40
2019-02-23T02:11:01.613Z,16.00
2019-02-23T02:12:05.482Z,14.80
2019-02-23T02:13:07.698Z,18.20
2019-02-23T02:14:10.223Z,14.80
2019-02-23T02:15:14.086Z,14.20
2019-02-23T02:16:16.114Z,15.00
2019-02-23T02:17:18.331Z,16.60
2019-02-23T02:18:20.434Z,17.60
2019-02-23T02:19:22.303Z,17.00
2019-02-23T02:20:24.303Z,15.00
2019-02-23T02:21:26.526Z,15.60
2019-02-23T02:22:28.586Z,17.00
2019-02-23T02:23:30.786Z,17.40
2019-02-23T02:24:33.088Z,14.80
2019-02-23T02:25:34.758Z,16.00
2019-02-23T02:26:36.945Z,14.20
2019-02-23T02:27:38.797Z,17.00
2019-02-23T02:28:40.670Z,18.00
2019-02-23T02:29:42.709Z,19.20
2019-02-23T02:30:44.354Z,16.80
2019-02-23T02:31:46.407Z,17.60
2019-02-23T02:32:48.758Z,19.60
2019-02-23T02:34:06.614Z,18.20
2019-02-23T02:35:09.715Z,17.80
2019-02-23T02:36:11.502Z,16.00
2019-02-23T02:37:13.722Z,16.00
2019-02-23T02:38:15.947Z,15.20
2019-02-23T02:39:17.899Z,13.20
2019-02-23T02:40:20.005Z,15.20
2019-02-23T02:41:21.935Z,14.60
2019-02-23T02:42:23.734Z,15.80
2019-02-23T02:43:25.535Z,16.40
2019-02-23T02:44:27.628Z,15.60
2019-02-23T02:45:29.538Z,13.60
2019-02-23T02:46:31.627Z,14.20
2019-02-23T02:47:33.464Z,16.20
2019-02-23T02:48:35.523Z,15.80
2019-02-23T02:49:37.409Z,15.80
2019-02-23T02:50:39.365Z,14.00
2019-02-23T02:51:41.342Z,15.20
2019-02-23T02:52:43.207Z,16.00
2019-02-23T02:53:45.085Z,14.60
2019-02-23T02:54:47.164Z,14.60
2019-02-23T02:55:49.053Z,17.00
2019-02-23T02:56:51.142Z,13.80
2019-02-23T02:57:53.634Z,13.20
2019-02-23T02:58:55.668Z,13.80
2019-02-23T02:59:57.702Z,15.60
2019-02-23T03:00:59.860Z,12.80
2019-02-23T03:02:02.034Z,15.60
2019-02-23T03:03:04.220Z,14.00
2019-02-23T03:04:06.088Z,14.20
2019-02-23T03:05:08.984Z,15.40
2019-02-23T03:06:12.060Z,11.60
2019-02-23T03:07:13.714Z,14.80
2019-02-23T03:08:15.698Z,15.60
2019-02-23T03:09:17.473Z,13.40
2019-02-23T03:10:19.152Z,10.80
2019-02-23T03:11:21.278Z,12.00
2019-02-23T03:12:23.334Z,13.60
2019-02-23T03:13:25.373Z,15.40
2019-02-23T03:14:27.470Z,14.80
2019-02-23T03:15:29.466Z,14.80
2019-02-23T03:16:31.551Z,13.80
2019-02-23T03:17:33.633Z,11.60
2019-02-23T03:18:35.580Z,14.20
2019-02-23T03:19:37.755Z,14.80
2019-02-23T03:20:39.916Z,13.40
2019-02-23T03:21:41.976Z,11.80
2019-02-23T03:22:43.969Z,13.20
2019-02-23T03:23:46.285Z,11.00
2019-02-23T03:24:48.362Z,15.00
2019-02-23T03:25:50.815Z,12.00
2019-02-23T03:26:52.787Z,15.60
2019-02-23T03:27:54.603Z,12.60
2019-02-23T03:28:56.507Z,12.40
2019-02-23T03:29:58.447Z,11.60
2019-02-23T03:31:00.215Z,11.40
2019-02-23T03:32:02.242Z,14.60
2019-02-23T03:33:04.007Z,15.20
2019-02-23T03:34:06.023Z,17.00
2019-02-23T03:35:08.391Z,11.60
2019-02-23T03:36:11.323Z,11.00
2019-02-23T03:37:13.389Z,11.40
2019-02-23T03:38:15.255Z,10.60
2019-02-23T03:39:17.401Z,10.40
2019-02-23T03:40:19.065Z,9.80
2019-02-23T03:41:21.540Z,11.00
2019-02-23T03:42:23.553Z,11.80
2019-02-23T03:43:25.592Z,11.20
2019-02-23T03:44:27.477Z,9.80
2019-02-23T03:45:29.460Z,11.60
2019-02-23T03:46:31.506Z,13.20
2019-02-23T03:47:33.464Z,11.40
2019-02-23T03:48:35.536Z,10.80
2019-02-23T03:49:37.900Z,11.20
2019-02-23T03:50:48.759Z,11.20
2019-02-23T03:51:43.843Z,10.40
2019-02-23T03:52:45.900Z,13.20
2019-02-23T03:53:47.936Z,11.00
2019-02-23T03:54:50.044Z,10.60
2019-02-23T03:55:52.108Z,10.00
2019-02-23T03:56:54.205Z,10.60
2019-02-23T03:57:57.064Z,11.00
2019-02-23T03:58:59.007Z,11.00
2019-02-23T04:00:01.186Z,10.80
2019-02-23T04:01:03.068Z,16.40
2019-02-23T04:02:05.319Z,14.80
2019-02-23T04:03:07.243Z,12.20
2019-02-23T04:04:11.252Z,14.00
2019-02-23T04:05:13.195Z,17.00
2019-02-23T04:06:15.340Z,14.20
2019-02-23T04:07:17.275Z,14.20
2019-02-23T04:08:19.329Z,16.40
2019-02-23T04:09:21.170Z,17.40
2019-02-23T04:10:23.078Z,16.20
2019-02-23T04:11:25.352Z,14.40
2019-02-23T04:12:27.226Z,15.00
2019-02-23T04:13:30.175Z,16.00
2019-02-23T04:14:32.301Z,13.00
2019-02-23T04:15:34.011Z,13.40
2019-02-23T04:16:35.671Z,13.60
2019-02-23T04:17:38.043Z,12.00
2019-02-23T04:18:40.197Z,12.20
2019-02-23T04:19:42.083Z,13.80
2019-02-23T04:20:43.953Z,13.00
2019-02-23T04:21:45.911Z,15.00
2019-02-23T04:22:47.953Z,11.00
2019-02-23T04:23:49.872Z,10.00
2019-02-23T04:24:51.671Z,13.00
2019-02-23T04:25:53.522Z,13.20
2019-02-23T04:26:55.475Z,9.40
2019-02-23T04:27:57.549Z,12.20
2019-02-23T04:28:59.670Z,12.80
2019-02-23T04:30:01.451Z,13.80
2019-02-23T04:31:03.794Z,11.00
2019-02-23T04:32:06.774Z,10.80
2019-02-23T04:33:08.754Z,11.80
2019-02-23T04:34:10.484Z,13.40
2019-02-23T04:35:12.588Z,13.80
2019-02-23T04:36:14.220Z,13.00
2019-02-23T04:37:16.178Z,13.00
2019-02-23T04:38:17.996Z,12.80
2019-02-23T04:39:19.900Z,13.00
2019-02-23T04:40:21.864Z,11.80
2019-02-23T04:41:23.877Z,10.00
2019-02-23T04:42:25.594Z,12.40
2019-02-23T04:43:27.427Z,14.80
2019-02-23T04:44:29.304Z,12.20
2019-02-23T04:45:31.349Z,12.80
2019-02-23T04:46:33.241Z,12.80
2019-02-23T04:47:35.160Z,9.20
2019-02-23T04:48:37.127Z,12.40
2019-02-23T04:49:38.996Z,9.80
2019-02-23T04:50:41.214Z,12.00
2019-02-23T04:51:42.996Z,12.60
2019-02-23T04:52:44.933Z,14.00
2019-02-23T04:53:46.802Z,13.00
2019-02-23T04:54:48.739Z,12.20
2019-02-23T04:55:50.872Z,11.00
2019-02-23T04:56:52.632Z,13.40
2019-02-23T04:57:56.002Z,14.20
2019-02-23T04:58:57.936Z,12.20
2019-02-23T05:00:01.587Z,12.60
2019-02-23T05:01:03.565Z,13.60
2019-02-23T05:02:05.651Z,13.00
2019-02-23T05:03:07.301Z,12.60
2019-02-23T05:04:09.126Z,14.00
2019-02-23T05:05:11.251Z,12.20
2019-02-23T05:06:13.188Z,11.20
2019-02-23T05:07:15.381Z,13.00
2019-02-23T05:08:17.403Z,12.60
2019-02-23T05:09:19.353Z,13.60
2019-02-23T05:10:21.218Z,12.80
2019-02-23T05:11:23.011Z,15.00
2019-02-23T05:12:25.091Z,14.40
2019-02-23T05:13:27.043Z,13.20
2019-02-23T05:14:28.965Z,12.40
2019-02-23T05:15:31.365Z,13.40
2019-02-23T05:16:33.099Z,13.40
2019-02-23T05:17:35.054Z,15.00
2019-02-23T05:18:37.633Z,14.80
2019-02-23T05:19:39.683Z,15.80
2019-02-23T05:20:41.539Z,15.20
2019-02-23T05:21:43.716Z,14.00
2019-02-23T05:22:45.502Z,14.00
2019-02-23T05:23:47.375Z,13.00
2019-02-23T05:24:49.565Z,14.60
2019-02-23T05:25:51.399Z,13.60
2019-02-23T05:26:53.399Z,14.40
2019-02-23T05:27:55.268Z,15.00
2019-02-23T05:28:57.327Z,13.60
2019-02-23T05:29:59.238Z,15.60
2019-02-23T05:31:02.554Z,13.80
2019-02-23T05:32:04.758Z,12.20
2019-02-23T05:33:06.548Z,12.00
2019-02-23T05:34:08.433Z,12.20
2019-02-23T05:35:12.233Z,13.60
2019-02-23T05:36:14.025Z,12.80
2019-02-23T05:37:16.000Z,12.40
2019-02-23T05:38:17.884Z,14.80
2019-02-23T05:39:20.130Z,13.20
2019-02-23T05:40:22.228Z,14.80
2019-02-23T05:41:24.121Z,15.40
2019-02-23T05:42:26.130Z,14.80
2019-02-23T05:43:27.895Z,14.20
2019-02-23T05:44:29.974Z,13.00
2019-02-23T05:45:31.747Z,10.80
2019-02-23T05:46:33.714Z,11.60
2019-02-23T05:47:35.677Z,14.20
2019-02-23T05:48:37.688Z,15.00
2019-02-23T05:49:39.748Z,16.00
2019-02-23T05:50:41.799Z,19.80
2019-02-23T05:51:43.484Z,17.60
2019-02-23T05:52:45.445Z,17.00
2019-02-23T05:53:47.340Z,15.80
2019-02-23T05:54:49.487Z,14.60
2019-02-23T05:55:51.603Z,16.80
2019-02-23T05:56:53.493Z,16.60
2019-02-23T05:57:55.325Z,16.60
2019-02-23T05:58:57.229Z,18.60
2019-02-23T05:59:59.235Z,15.20
2019-02-23T06:01:01.147Z,16.00
2019-02-23T06:02:03.275Z,11.40
2019-02-23T06:03:05.441Z,18.80
2019-02-23T06:04:07.492Z,14.80
2019-02-23T06:05:09.737Z,17.60
2019-02-23T06:06:11.680Z,15.00
2019-02-23T06:07:13.647Z,18.00
2019-02-23T06:08:15.437Z,21.60
2019-02-23T06:09:17.421Z,17.40
2019-02-23T06:10:19.669Z,15.40
2019-02-23T06:11:21.439Z,16.00
2019-02-23T06:12:23.556Z,16.20
2019-02-23T06:13:25.408Z,14.00
2019-02-23T06:14:27.521Z,15.00
2019-02-23T06:15:29.469Z,14.80
2019-02-23T06:16:31.316Z,12.40
2019-02-23T06:17:33.312Z,14.20
2019-02-23T06:18:35.170Z,12.40
2019-02-23T06:19:37.199Z,15.60
2019-02-23T06:20:39.988Z,14.60
2019-02-23T06:21:52.785Z,14.00
2019-02-23T06:22:46.882Z,13.40
2019-02-23T06:23:49.155Z,13.80
2019-02-23T06:24:51.076Z,18.40
2019-02-23T06:25:52.914Z,19.80
2019-02-23T06:26:54.780Z,24.00
2019-02-23T06:27:56.732Z,23.00
2019-02-23T06:28:58.844Z,24.20
2019-02-23T06:30:00.945Z,23.40
2019-02-23T06:31:02.970Z,28.00
2019-02-23T06:32:05.058Z,20.40
2019-02-23T06:33:06.822Z,25.00
2019-02-23T06:34:16.086Z,22.60
2019-02-23T06:35:12.981Z,23.00
2019-02-23T06:36:14.987Z,24.20
2019-02-23T06:37:16.724Z,20.60
2019-02-23T06:38:18.609Z,21.40
2019-02-23T06:39:20.426Z,23.00
2019-02-23T06:40:22.208Z,20.60
2019-02-23T06:41:24.121Z,20.60
2019-02-23T06:42:26.007Z,21.40
2019-02-23T06:43:27.959Z,20.20
2019-02-23T06:44:29.946Z,20.20
2019-02-23T06:45:31.849Z,19.20
2019-02-23T06:46:33.994Z,18.00
2019-02-23T06:47:36.075Z,19.40
2019-02-23T06:48:37.973Z,16.80
2019-02-23T06:49:39.995Z,16.60
2019-02-23T06:50:41.903Z,20.60
2019-02-23T06:51:43.564Z,19.60
2019-02-23T06:52:45.648Z,22.60
2019-02-23T06:53:47.482Z,20.40
2019-02-23T06:54:49.225Z,18.60
2019-02-23T06:55:51.529Z,19.60
2019-02-23T06:56:55.398Z,20.00
2019-02-23T06:57:57.242Z,15.00
2019-02-23T06:58:59.168Z,17.60
2019-02-23T07:00:01.579Z,20.60
2019-02-23T07:01:04.732Z,14.60
2019-02-23T07:02:06.825Z,16.00
2019-02-23T07:03:08.759Z,16.20
2019-02-23T07:04:10.628Z,15.40
2019-02-23T07:05:12.912Z,15.00
2019-02-23T07:06:16.915Z,16.20
2019-02-23T07:07:18.806Z,17.80
2019-02-23T07:08:21.150Z,13.80
2019-02-23T07:09:23.139Z,16.20
2019-02-23T07:10:25.054Z,14.20
2019-02-23T07:11:26.969Z,17.20
2019-02-23T07:12:28.768Z,12.60
2019-02-23T07:13:30.475Z,16.00
2019-02-23T07:14:32.396Z,19.80
2019-02-23T07:15:34.237Z,17.60
2019-02-23T07:16:39.228Z,17.20
2019-02-23T07:17:41.518Z,16.60
2019-02-23T07:18:43.496Z,14.40
2019-02-23T07:19:46.946Z,12.40
2019-02-23T07:20:48.994Z,15.40
2019-02-23T07:21:51.127Z,16.60
2019-02-23T07:22:53.114Z,13.00
2019-02-23T07:23:55.134Z,16.00
2019-02-23T07:24:58.562Z,13.80
2019-02-23T07:26:00.810Z,13.40
2019-02-23T07:27:02.867Z,13.80
2019-02-23T07:28:04.621Z,13.80
2019-02-23T07:29:06.475Z,11.00
2019-02-23T07:30:13.172Z,16.20
2019-02-23T07:31:15.051Z,14.60
2019-02-23T07:32:17.078Z,14.40
2019-02-23T07:33:32.069Z,15.20
2019-02-23T07:34:23.157Z,12.80
2019-02-23T07:35:25.076Z,15.00
2019-02-23T07:36:27.156Z,14.20
2019-02-23T07:37:29.519Z,14.40
2019-02-23T07:38:31.416Z,15.60
2019-02-23T07:39:33.474Z,15.60
2019-02-23T07:40:35.435Z,14.40
2019-02-23T07:41:39.291Z,14.60
2019-02-23T07:42:41.218Z,12.80
2019-02-23T07:43:43.257Z,15.00
2019-02-23T07:44:46.239Z,10.60
2019-02-23T07:45:48.228Z,11.80
2019-02-23T07:46:50.114Z,10.60
2019-02-23T07:47:52.430Z,11.80
2019-02-23T07:48:54.517Z,10.60
2019-02-23T07:49:56.395Z,11.40
2019-02-23T07:50:58.287Z,10.60
2019-02-23T07:52:00.131Z,11.00
2019-02-23T07:53:02.288Z,11.40
2019-02-23T07:54:04.310Z,9.40
2019-02-23T07:55:06.917Z,10.20
2019-02-23T07:56:09.093Z,11.00
2019-02-23T07:57:11.094Z,11.20
2019-02-23T07:58:13.116Z,13.00
2019-02-23T07:59:15.185Z,10.80
2019-02-23T08:00:17.244Z,12.00
2019-02-23T08:01:19.195Z,13.20
2019-02-23T08:02:21.239Z,11.40
2019-02-23T08:03:23.460Z,10.00
2019-02-23T08:04:25.471Z,9.40
2019-02-23T08:05:27.497Z,10.00
2019-02-23T08:06:30.055Z,11.20
2019-02-23T08:07:32.192Z,10.00
2019-02-23T08:08:34.252Z,11.20
2019-02-23T08:09:36.134Z,12.20
2019-02-23T08:10:38.232Z,11.80
2019-02-23T08:11:40.449Z,9.00
2019-02-23T08:12:43.045Z,10.40
2019-02-23T08:13:44.968Z,13.00
2019-02-23T08:14:47.298Z,10.60
2019-02-23T08:15:49.246Z,10.80
2019-02-23T08:16:51.066Z,10.60
2019-02-23T08:17:52.985Z,11.20
2019-02-23T08:18:54.876Z,10.40
2019-02-23T08:19:56.670Z,12.00
2019-02-23T08:20:58.570Z,12.80
2019-02-23T08:22:00.263Z,12.60
2019-02-23T08:23:02.186Z,11.40
2019-02-23T08:24:04.239Z,11.00
2019-02-23T08:25:09.323Z,9.80
2019-02-23T08:26:11.534Z,10.40
2019-02-23T08:27:13.345Z,10.60
2019-02-23T08:28:15.055Z,10.60
2019-02-23T08:29:17.067Z,12.40
2019-02-23T08:30:20.499Z,13.00
2019-02-23T08:31:22.601Z,9.00
2019-02-23T08:32:24.451Z,10.40
2019-02-23T08:33:26.678Z,10.80
2019-02-23T08:34:28.598Z,12.80
2019-02-23T08:35:30.366Z,11.80
2019-02-23T08:36:32.286Z,11.20
2019-02-23T08:37:34.271Z,11.00
2019-02-23T08:38:36.228Z,10.60
2019-02-23T08:39:38.015Z,10.00
2019-02-23T08:40:39.968Z,12.80
2019-02-23T08:41:43.341Z,13.00
2019-02-23T08:42:45.263Z,10.60
2019-02-23T08:43:47.120Z,10.80
2019-02-23T08:44:49.105Z,10.40
2019-02-23T08:45:51.583Z,11.00
2019-02-23T08:46:53.547Z,8.20
2019-02-23T08:47:56.424Z,9.20
2019-02-23T08:48:58.509Z,10.60
2019-02-23T08:50:00.526Z,13.20
2019-02-23T08:51:02.618Z,9.40
2019-02-23T08:52:04.767Z,9.60
2019-02-23T08:53:06.642Z,10.00
2019-02-23T08:54:08.437Z,7.80
2019-02-23T08:55:10.440Z,12.60
2019-02-23T08:56:12.388Z,14.80
2019-02-23T08:57:14.048Z,9.40
2019-02-23T08:58:15.942Z,10.60
2019-02-23T08:59:17.889Z,11.20
2019-02-23T09:00:20.846Z,10.00
2019-02-23T09:01:22.823Z,8.20
2019-02-23T09:02:24.723Z,8.40
2019-02-23T09:03:26.531Z,14.80
2019-02-23T09:04:28.448Z,10.20
2019-02-23T09:05:30.817Z,12.00
2019-02-23T09:06:33.005Z,8.20
2019-02-23T09:07:35.088Z,7.20
2019-02-23T09:08:37.269Z,12.20
2019-02-23T09:09:39.266Z,9.00
2019-02-23T09:10:41.556Z,11.60
2019-02-23T09:11:44.522Z,8.00
2019-02-23T09:12:46.256Z,9.20
2019-02-23T09:13:48.552Z,8.80
2019-02-23T09:14:50.357Z,10.40
2019-02-23T09:15:52.267Z,10.00
2019-02-23T09:16:54.450Z,8.20
2019-02-23T09:17:56.223Z,9.80
2019-02-23T09:18:58.073Z,7.20
2019-02-23T09:19:59.860Z,8.80
2019-02-23T09:21:01.830Z,10.60
2019-02-23T09:22:04.327Z,10.60
2019-02-23T09:23:06.572Z,9.00
2019-02-23T09:24:08.364Z,10.00
2019-02-23T09:25:10.677Z,9.60
2019-02-23T09:26:12.418Z,7.00
2019-02-23T09:27:14.461Z,7.60
2019-02-23T09:28:16.259Z,11.20
2019-02-23T09:29:18.278Z,9.80
2019-02-23T09:30:20.309Z,9.00
2019-02-23T09:31:22.224Z,8.00
2019-02-23T09:32:24.148Z,8.40
2019-02-23T09:33:26.055Z,9.00
2019-02-23T09:34:27.945Z,11.80
2019-02-23T09:35:30.091Z,10.40
2019-02-23T09:36:31.781Z,8.40
2019-02-23T09:37:34.205Z,9.00
2019-02-23T09:38:37.092Z,8.00
2019-02-23T09:39:38.970Z,9.40
2019-02-23T09:40:40.998Z,9.20
2019-02-23T09:41:42.925Z,6.80
2019-02-23T09:42:44.845Z,8.00
2019-02-23T09:43:46.804Z,12.40
2019-02-23T09:44:48.929Z,8.00
2019-02-23T09:45:50.627Z,9.00
2019-02-23T09:46:52.534Z,10.00
2019-02-23T09:47:54.558Z,7.80
2019-02-23T09:48:56.490Z,8.80
2019-02-23T09:49:58.615Z,9.20
2019-02-23T09:51:00.635Z,11.00
2019-02-23T09:52:02.358Z,9.60
2019-02-23T09:53:11.245Z,10.40
2019-02-23T09:54:08.614Z,10.60
2019-02-23T09:55:11.613Z,8.20
2019-02-23T09:56:13.458Z,7.40
2019-02-23T09:57:15.527Z,11.00
2019-02-23T09:58:17.469Z,8.80
2019-02-23T09:59:19.502Z,8.60
2019-02-23T10:00:21.523Z,8.20
2019-02-23T10:01:23.507Z,7.80
2019-02-23T10:02:25.504Z,7.80
2019-02-23T10:03:27.642Z,8.60
2019-02-23T10:04:29.763Z,7.20
2019-02-23T10:05:31.780Z,8.60
2019-02-23T10:06:33.568Z,8.00
2019-02-23T10:07:35.379Z,9.80
2019-02-23T10:08:37.687Z,10.00
2019-02-23T10:09:40.079Z,7.00
2019-02-23T10:10:42.430Z,7.80
2019-02-23T10:11:44.443Z,6.40
2019-02-23T10:12:46.462Z,8.00
2019-02-23T10:13:48.727Z,8.20
2019-02-23T10:14:50.546Z,7.00
2019-02-23T10:15:52.588Z,9.00
2019-02-23T10:16:54.490Z,7.60
2019-02-23T10:17:56.287Z,8.60
2019-02-23T10:18:57.981Z,10.80
2019-02-23T10:19:59.897Z,7.00
2019-02-23T10:21:01.855Z,8.80
2019-02-23T10:22:03.987Z,7.00
2019-02-23T10:23:06.093Z,6.00
2019-02-23T10:24:07.907Z,9.20
2019-02-23T10:25:09.870Z,10.00
2019-02-23T10:26:12.318Z,9.00
2019-02-23T10:27:15.648Z,8.20
2019-02-23T10:28:17.703Z,8.20
2019-02-23T10:29:20.116Z,7.40
2019-02-23T10:30:22.040Z,9.00
2019-02-23T10:31:24.013Z,8.40
2019-02-23T10:32:26.048Z,8.00
2019-02-23T10:33:27.922Z,10.80
2019-02-23T10:34:29.708Z,6.20
2019-02-23T10:35:31.813Z,8.80
2019-02-23T10:36:33.851Z,6.40
2019-02-23T10:37:35.760Z,8.40
2019-02-23T10:38:37.936Z,7.40
2019-02-23T10:39:39.695Z,8.60
2019-02-23T10:40:41.953Z,8.20
2019-02-23T10:41:43.821Z,9.80
2019-02-23T10:42:45.856Z,7.00
2019-02-23T10:43:47.770Z,7.20
2019-02-23T10:44:49.628Z,7.00
2019-02-23T10:45:51.492Z,6.60
2019-02-23T10:46:53.496Z,9.00
2019-02-23T10:47:57.328Z,9.40
2019-02-23T10:48:59.346Z,9.40
2019-02-23T10:50:01.318Z,7.20
2019-02-23T10:51:03.503Z,7.60
2019-02-23T10:52:05.568Z,7.60
2019-02-23T10:53:07.550Z,8.00
2019-02-23T10:54:09.598Z,7.00
2019-02-23T10:55:14.073Z,8.00
2019-02-23T10:56:16.031Z,9.60
2019-02-23T10:57:18.142Z,7.60
2019-02-23T10:58:20.215Z,8.00
2019-02-23T10:59:22.469Z,7.00
2019-02-23T11:00:25.190Z,6.80
2019-02-23T11:01:27.696Z,7.40
2019-02-23T11:02:29.771Z,6.80
2019-02-23T11:03:32.244Z,7.00
2019-02-23T11:04:34.409Z,9.00
2019-02-23T11:05:36.459Z,7.60
2019-02-23T11:06:38.726Z,7.40
2019-02-23T11:07:40.987Z,6.00
2019-02-23T11:08:43.137Z,6.60
2019-02-23T11:09:45.186Z,6.20
2019-02-23T11:10:47.141Z,7.00
2019-02-23T11:11:49.155Z,8.00
2019-02-23T11:12:51.486Z,8.00
2019-02-23T11:13:53.465Z,8.80
2019-02-23T11:14:56.785Z,8.00
2019-02-23T11:15:58.661Z,7.20
2019-02-23T11:17:00.800Z,9.00
2019-02-23T11:18:03.123Z,8.60
2019-02-23T11:19:05.087Z,10.80
2019-02-23T11:20:09.553Z,10.00
2019-02-23T11:21:12.051Z,10.20
2019-02-23T11:22:14.626Z,10.00
2019-02-23T11:23:17.085Z,8.20
2019-02-23T11:24:19.172Z,8.00
2019-02-23T11:25:21.149Z,7.40
2019-02-23T11:26:23.289Z,6.20
2019-02-23T11:27:26.552Z,8.20
2019-02-23T11:28:28.586Z,7.60
2019-02-23T11:29:31.777Z,7.00
2019-02-23T11:30:33.923Z,6.40
2019-02-23T11:31:35.826Z,6.40
2019-02-23T11:32:37.818Z,6.20
2019-02-23T11:33:39.518Z,6.60
2019-02-23T11:34:41.850Z,6.60
2019-02-23T11:35:43.790Z,6.80
2019-02-23T11:36:45.506Z,6.60
2019-02-23T11:37:47.399Z,7.20
2019-02-23T11:38:49.376Z,6.00
2019-02-23T11:39:51.444Z,7.00
2019-02-23T11:40:53.418Z,6.00
2019-02-23T11:41:55.333Z,7.00
2019-02-23T11:42:57.757Z,6.00
2019-02-23T11:43:59.944Z,6.00
2019-02-23T11:45:02.124Z,7.00
2019-02-23T11:46:04.162Z,7.40
2019-02-23T11:47:06.399Z,6.60
2019-02-23T11:48:08.312Z,7.00
2019-02-23T11:49:10.162Z,5.20
2019-02-23T11:50:12.823Z,6.00
2019-02-23T11:51:15.113Z,5.40
2019-02-23T11:52:16.868Z,7.20
2019-02-23T11:53:19.015Z,7.20
2019-02-23T11:54:21.070Z,5.40
2019-02-23T11:55:23.085Z,5.20
2019-02-23T11:56:25.323Z,7.00
2019-02-23T11:57:27.284Z,5.00
2019-02-23T11:58:29.027Z,5.00
2019-02-23T11:59:31.196Z,5.00
2019-02-23T12:00:34.772Z,6.00
2019-02-23T12:01:38.455Z,5.80
2019-02-23T12:02:40.391Z,6.00
2019-02-23T12:03:42.472Z,5.00
2019-02-23T12:04:44.789Z,6.40
2019-02-23T12:05:46.588Z,6.00
2019-02-23T12:06:48.352Z,5.00
2019-02-23T12:07:50.400Z,7.60
2019-02-23T12:08:52.428Z,6.00
2019-02-23T12:09:54.388Z,7.00
2019-02-23T12:10:56.619Z,7.20
2019-02-23T12:11:58.490Z,6.00
2019-02-23T12:13:00.472Z,7.00
2019-02-23T12:14:02.883Z,6.80
2019-02-23T12:15:06.851Z,6.00
2019-02-23T12:16:11.864Z,7.60
2019-02-23T12:17:14.066Z,6.00
2019-02-23T12:18:16.106Z,7.00
2019-02-23T12:19:17.915Z,7.20
2019-02-23T12:20:20.050Z,7.00
2019-02-23T12:21:22.190Z,8.00
2019-02-23T12:22:24.438Z,6.40
2019-02-23T12:23:26.362Z,7.80
2019-02-23T12:24:28.350Z,6.00
2019-02-23T12:25:30.196Z,7.00
2019-02-23T12:26:33.243Z,8.00
2019-02-23T12:27:35.901Z,7.40
2019-02-23T12:28:37.974Z,8.00
2019-02-23T12:29:40.194Z,8.60
2019-02-23T12:30:42.050Z,8.00
2019-02-23T12:31:43.976Z,7.40
2019-02-23T12:32:45.930Z,8.80
2019-02-23T12:33:47.821Z,8.00
2019-02-23T12:34:50.011Z,8.60
2019-02-23T12:35:51.845Z,8.20
2019-02-23T12:36:53.801Z,9.20
2019-02-23T12:37:55.746Z,8.80
2019-02-23T12:38:57.601Z,6.00
2019-02-23T12:39:59.612Z,7.60
2019-02-23T12:41:01.778Z,8.40
2019-02-23T12:42:03.879Z,8.00
2019-02-23T12:43:05.769Z,8.00
2019-02-23T12:44:07.649Z,5.80
2019-02-23T12:45:11.817Z,7.00
2019-02-23T12:46:13.919Z,9.20
2019-02-23T12:47:15.684Z,9.40
2019-02-23T12:48:18.788Z,9.40
2019-02-23T12:49:20.818Z,8.20
2019-02-23T12:50:22.818Z,7.00
2019-02-23T12:51:25.124Z,9.20
2019-02-23T12:52:26.981Z,8.60
2019-02-23T12:53:29.118Z,9.60
2019-02-23T12:54:30.991Z,9.80
2019-02-23T12:55:32.807Z,8.00
2019-02-23T12:56:34.827Z,8.00
2019-02-23T12:57:36.736Z,7.80
2019-02-23T12:58:38.781Z,5.40
2019-02-23T12:59:41.600Z,6.00
2019-02-23T13:00:43.523Z,9.00
2019-02-23T13:01:46.982Z,9.00
2019-02-23T13:02:48.907Z,7.80
2019-02-23T13:03:50.791Z,7.00
2019-02-23T13:04:53.734Z,7.20
2019-02-23T13:05:55.687Z,7.60
2019-02-23T13:06:57.682Z,6.80
2019-02-23T13:07:59.478Z,9.00
2019-02-23T13:09:27.005Z,7.00
2019-02-23T13:10:28.971Z,7.00
2019-02-23T13:11:31.060Z,7.80
2019-02-23T13:13:02.839Z,8.00
2019-02-23T13:14:33.432Z,7.00
2019-02-23T13:15:45.414Z,7.80
2019-02-23T13:16:52.886Z,7.20
2019-02-23T13:18:11.842Z,7.40
2019-02-23T13:19:31.755Z,6.80
2019-02-23T13:20:57.384Z,7.00
2019-02-23T13:22:14.188Z,7.60
2019-02-23T13:23:40.387Z,8.00
2019-02-23T13:25:03.257Z,8.40
2019-02-23T13:26:52.817Z,8.00
2019-02-23T13:28:19.674Z,6.60
2019-02-23T13:29:45.607Z,7.00
2019-02-23T13:31:00.498Z,9.00
2019-02-23T13:32:14.080Z,8.00
2019-02-23T13:33:33.219Z,8.80
2019-02-23T13:35:00.147Z,8.00